sensor_id;sensor_type;location;lat;lon;timestamp;P1;durP1;ratioP1;P2;durP2;ratioP2
15126;SDS011;7664;52.008;4.748;2023-06-19T00:01:24;7.07;;;4.68;;
15126;SDS011;7664;52.008;4.748;2023-06-19T00:03:53;9.02;;;4.57;;
15126;SDS011;7664;52.008;4.748;2023-06-19T00:06:21;4.93;;;3.05;;
15126;SDS011;7664;52.008;4.748;2023-06-19T00:08:51;3.90;;;2.70;;
15126;SDS011;7664;52.008;4.748;2023-06-19T00:11:19;3.55;;;1.95;;
15126;SDS011;7664;52.008;4.748;2023-06-19T00:13:48;2.28;;;1.65;;
15126;SDS011;7664;52.008;4.748;2023-06-19T00:16:16;3.45;;;2.25;;
15126;SDS011;7664;52.008;4.748;2023-06-19T00:18:45;3.65;;;1.70;;
15126;SDS011;7664;52.008;4.748;2023-06-19T00:21:14;3.03;;;1.67;;
15126;SDS011;7664;52.008;4.748;2023-06-19T00:23:42;2.10;;;1.20;;
15126;SDS011;7664;52.008;4.748;2023-06-19T00:26:12;2.38;;;1.33;;
15126;SDS011;7664;52.008;4.748;2023-06-19T00:28:41;1.58;;;1.10;;
15126;SDS011;7664;52.008;4.748;2023-06-19T00:31:11;1.88;;;1.27;;
15126;SDS011;7664;52.008;4.748;2023-06-19T00:33:41;1.70;;;1.20;;
15126;SDS011;7664;52.008;4.748;2023-06-19T00:36:09;1.50;;;1.20;;
15126;SDS011;7664;52.008;4.748;2023-06-19T00:38:38;1.35;;;0.90;;
15126;SDS011;7664;52.008;4.748;2023-06-19T00:41:06;2.03;;;1.25;;
15126;SDS011;7664;52.008;4.748;2023-06-19T00:43:36;1.35;;;1.00;;
15126;SDS011;7664;52.008;4.748;2023-06-19T00:46:05;1.58;;;1.02;;
15126;SDS011;7664;52.008;4.748;2023-06-19T00:48:33;1.33;;;0.80;;
15126;SDS011;7664;52.008;4.748;2023-06-19T00:51:02;5.65;;;1.65;;
15126;SDS011;7664;52.008;4.748;2023-06-19T00:53:30;1.77;;;1.05;;
15126;SDS011;7664;52.008;4.748;2023-06-19T00:56:01;3.05;;;0.90;;
15126;SDS011;7664;52.008;4.748;2023-06-19T00:58:30;4.13;;;1.23;;
15126;SDS011;7664;52.008;4.748;2023-06-19T01:00:59;2.28;;;1.30;;
15126;SDS011;7664;52.008;4.748;2023-06-19T01:03:35;6.45;;;1.38;;
15126;SDS011;7664;52.008;4.748;2023-06-19T01:06:05;1.63;;;1.15;;
15126;SDS011;7664;52.008;4.748;2023-06-19T01:08:41;1.52;;;1.05;;
15126;SDS011;7664;52.008;4.748;2023-06-19T01:11:11;1.75;;;1.10;;
15126;SDS011;7664;52.008;4.748;2023-06-19T01:13:53;2.38;;;1.27;;
15126;SDS011;7664;52.008;4.748;2023-06-19T01:16:26;1.35;;;1.08;;
15126;SDS011;7664;52.008;4.748;2023-06-19T01:18:55;2.00;;;1.00;;
15126;SDS011;7664;52.008;4.748;2023-06-19T01:21:24;1.80;;;1.40;;
15126;SDS011;7664;52.008;4.748;2023-06-19T01:23:56;2.47;;;1.80;;
15126;SDS011;7664;52.008;4.748;2023-06-19T01:26:25;1.92;;;1.60;;
15126;SDS011;7664;52.008;4.748;2023-06-19T01:28:56;3.35;;;2.35;;
15126;SDS011;7664;52.008;4.748;2023-06-19T01:31:25;4.25;;;3.00;;
15126;SDS011;7664;52.008;4.748;2023-06-19T01:33:56;2.75;;;2.03;;
15126;SDS011;7664;52.008;4.748;2023-06-19T01:36:25;3.25;;;2.17;;
15126;SDS011;7664;52.008;4.748;2023-06-19T01:38:54;3.22;;;2.00;;
15126;SDS011;7664;52.008;4.748;2023-06-19T01:41:25;2.42;;;2.22;;
15126;SDS011;7664;52.008;4.748;2023-06-19T01:43:54;3.35;;;2.78;;
15126;SDS011;7664;52.008;4.748;2023-06-19T01:46:22;3.75;;;2.78;;
15126;SDS011;7664;52.008;4.748;2023-06-19T01:48:51;4.55;;;2.60;;
15126;SDS011;7664;52.008;4.748;2023-06-19T01:51:20;2.95;;;2.42;;
15126;SDS011;7664;52.008;4.748;2023-06-19T01:53:48;3.05;;;2.17;;
15126;SDS011;7664;52.008;4.748;2023-06-19T01:56:16;4.90;;;2.90;;
15126;SDS011;7664;52.008;4.748;2023-06-19T01:58:46;3.58;;;2.67;;
15126;SDS011;7664;52.008;4.748;2023-06-19T02:01:15;3.53;;;2.78;;
15126;SDS011;7664;52.008;4.748;2023-06-19T02:03:43;2.95;;;2.50;;
15126;SDS011;7664;52.008;4.748;2023-06-19T02:06:11;3.10;;;2.13;;
15126;SDS011;7664;52.008;4.748;2023-06-19T02:08:40;3.13;;;2.47;;
15126;SDS011;7664;52.008;4.748;2023-06-19T02:11:10;5.00;;;2.50;;
15126;SDS011;7664;52.008;4.748;2023-06-19T02:13:39;4.50;;;2.97;;
15126;SDS011;7664;52.008;4.748;2023-06-19T02:16:09;4.20;;;2.22;;
15126;SDS011;7664;52.008;4.748;2023-06-19T02:18:37;3.33;;;2.70;;
15126;SDS011;7664;52.008;4.748;2023-06-19T02:21:06;5.13;;;2.58;;
15126;SDS011;7664;52.008;4.748;2023-06-19T02:23:34;4.03;;;2.97;;
15126;SDS011;7664;52.008;4.748;2023-06-19T02:26:03;5.05;;;3.42;;
15126;SDS011;7664;52.008;4.748;2023-06-19T02:28:31;4.03;;;2.92;;
15126;SDS011;7664;52.008;4.748;2023-06-19T02:31:00;4.30;;;3.65;;
15126;SDS011;7664;52.008;4.748;2023-06-19T02:33:30;4.07;;;2.75;;
15126;SDS011;7664;52.008;4.748;2023-06-19T02:35:58;5.95;;;3.60;;
15126;SDS011;7664;52.008;4.748;2023-06-19T02:38:28;4.45;;;3.47;;
15126;SDS011;7664;52.008;4.748;2023-06-19T02:40:56;4.10;;;3.50;;
15126;SDS011;7664;52.008;4.748;2023-06-19T02:43:27;6.75;;;4.75;;
15126;SDS011;7664;52.008;4.748;2023-06-19T02:45:56;10.25;;;5.63;;
15126;SDS011;7664;52.008;4.748;2023-06-19T02:48:26;9.00;;;5.78;;
15126;SDS011;7664;52.008;4.748;2023-06-19T02:50:56;10.73;;;7.53;;
15126;SDS011;7664;52.008;4.748;2023-06-19T02:53:25;13.18;;;6.65;;
15126;SDS011;7664;52.008;4.748;2023-06-19T02:55:53;11.50;;;6.40;;
15126;SDS011;7664;52.008;4.748;2023-06-19T02:58:22;9.80;;;7.47;;
15126;SDS011;7664;52.008;4.748;2023-06-19T03:00:52;10.02;;;6.13;;
15126;SDS011;7664;52.008;4.748;2023-06-19T03:03:20;9.07;;;6.40;;
15126;SDS011;7664;52.008;4.748;2023-06-19T03:05:49;7.63;;;5.90;;
15126;SDS011;7664;52.008;4.748;2023-06-19T03:08:19;8.30;;;5.35;;
15126;SDS011;7664;52.008;4.748;2023-06-19T03:10:47;8.50;;;5.65;;
15126;SDS011;7664;52.008;4.748;2023-06-19T03:13:16;7.03;;;5.40;;
15126;SDS011;7664;52.008;4.748;2023-06-19T03:15:44;9.35;;;5.75;;
15126;SDS011;7664;52.008;4.748;2023-06-19T03:18:13;9.25;;;5.63;;
15126;SDS011;7664;52.008;4.748;2023-06-19T03:20:41;8.00;;;5.38;;
15126;SDS011;7664;52.008;4.748;2023-06-19T03:23:10;9.15;;;6.07;;
15126;SDS011;7664;52.008;4.748;2023-06-19T03:25:40;6.80;;;5.55;;
15126;SDS011;7664;52.008;4.748;2023-06-19T03:28:10;7.28;;;5.20;;
15126;SDS011;7664;52.008;4.748;2023-06-19T03:30:38;6.18;;;4.90;;
15126;SDS011;7664;52.008;4.748;2023-06-19T03:33:07;7.25;;;5.32;;
15126;SDS011;7664;52.008;4.748;2023-06-19T03:35:44;6.00;;;4.57;;
15126;SDS011;7664;52.008;4.748;2023-06-19T03:38:26;6.75;;;5.30;;
15126;SDS011;7664;52.008;4.748;2023-06-19T03:40:57;7.10;;;4.97;;
15126;SDS011;7664;52.008;4.748;2023-06-19T03:43:25;8.57;;;5.32;;
15126;SDS011;7664;52.008;4.748;2023-06-19T03:45:54;8.40;;;4.97;;
15126;SDS011;7664;52.008;4.748;2023-06-19T03:48:22;6.60;;;4.72;;
15126;SDS011;7664;52.008;4.748;2023-06-19T03:50:51;7.07;;;4.70;;
15126;SDS011;7664;52.008;4.748;2023-06-19T03:53:19;5.55;;;3.95;;
15126;SDS011;7664;52.008;4.748;2023-06-19T03:55:48;4.90;;;3.58;;
15126;SDS011;7664;52.008;4.748;2023-06-19T03:58:17;6.78;;;4.15;;
15126;SDS011;7664;52.008;4.748;2023-06-19T04:00:46;5.75;;;4.15;;
15126;SDS011;7664;52.008;4.748;2023-06-19T04:03:14;5.18;;;3.88;;
15126;SDS011;7664;52.008;4.748;2023-06-19T04:05:44;7.18;;;3.38;;
15126;SDS011;7664;52.008;4.748;2023-06-19T04:08:13;5.30;;;3.78;;
15126;SDS011;7664;52.008;4.748;2023-06-19T04:10:42;6.28;;;3.38;;
15126;SDS011;7664;52.008;4.748;2023-06-19T04:13:11;4.10;;;2.83;;
15126;SDS011;7664;52.008;4.748;2023-06-19T04:15:40;3.85;;;2.78;;
15126;SDS011;7664;52.008;4.748;2023-06-19T04:18:12;3.83;;;2.88;;
15126;SDS011;7664;52.008;4.748;2023-06-19T04:20:41;5.65;;;2.92;;
15126;SDS011;7664;52.008;4.748;2023-06-19T04:23:11;5.32;;;2.80;;
15126;SDS011;7664;52.008;4.748;2023-06-19T04:25:40;5.25;;;3.03;;
15126;SDS011;7664;52.008;4.748;2023-06-19T04:28:10;3.53;;;2.90;;
15126;SDS011;7664;52.008;4.748;2023-06-19T04:30:38;5.05;;;2.50;;
15126;SDS011;7664;52.008;4.748;2023-06-19T04:33:08;3.10;;;2.42;;
15126;SDS011;7664;52.008;4.748;2023-06-19T04:35:37;8.02;;;2.15;;
15126;SDS011;7664;52.008;4.748;2023-06-19T04:38:07;3.92;;;2.40;;
15126;SDS011;7664;52.008;4.748;2023-06-19T04:40:35;2.25;;;1.73;;
15126;SDS011;7664;52.008;4.748;2023-06-19T04:43:04;2.53;;;2.08;;
15126;SDS011;7664;52.008;4.748;2023-06-19T04:45:32;2.85;;;2.05;;
15126;SDS011;7664;52.008;4.748;2023-06-19T04:48:01;5.13;;;2.53;;
15126;SDS011;7664;52.008;4.748;2023-06-19T04:50:31;3.72;;;2.08;;
15126;SDS011;7664;52.008;4.748;2023-06-19T04:52:59;5.78;;;2.78;;
15126;SDS011;7664;52.008;4.748;2023-06-19T04:55:28;4.30;;;2.70;;
15126;SDS011;7664;52.008;4.748;2023-06-19T04:57:57;4.95;;;2.60;;
15126;SDS011;7664;52.008;4.748;2023-06-19T05:00:25;3.40;;;2.50;;
15126;SDS011;7664;52.008;4.748;2023-06-19T05:02:54;5.15;;;2.30;;
15126;SDS011;7664;52.008;4.748;2023-06-19T05:05:27;4.15;;;2.35;;
15126;SDS011;7664;52.008;4.748;2023-06-19T05:07:57;5.05;;;2.83;;
15126;SDS011;7664;52.008;4.748;2023-06-19T05:10:25;4.30;;;2.70;;
15126;SDS011;7664;52.008;4.748;2023-06-19T05:12:54;3.65;;;3.00;;
15126;SDS011;7664;52.008;4.748;2023-06-19T05:15:22;4.57;;;2.83;;
15126;SDS011;7664;52.008;4.748;2023-06-19T05:17:51;7.60;;;3.28;;
15126;SDS011;7664;52.008;4.748;2023-06-19T05:20:19;6.85;;;4.03;;
15126;SDS011;7664;52.008;4.748;2023-06-19T05:22:49;5.93;;;3.63;;
15126;SDS011;7664;52.008;4.748;2023-06-19T05:25:18;4.85;;;3.65;;
15126;SDS011;7664;52.008;4.748;2023-06-19T05:27:47;4.53;;;3.47;;
15126;SDS011;7664;52.008;4.748;2023-06-19T05:30:15;5.65;;;3.83;;
15126;SDS011;7664;52.008;4.748;2023-06-19T05:32:43;5.05;;;3.65;;
15126;SDS011;7664;52.008;4.748;2023-06-19T05:35:12;4.50;;;3.33;;
15126;SDS011;7664;52.008;4.748;2023-06-19T05:37:42;5.32;;;3.95;;
15126;SDS011;7664;52.008;4.748;2023-06-19T05:40:11;5.43;;;3.90;;
15126;SDS011;7664;52.008;4.748;2023-06-19T05:42:40;5.88;;;3.60;;
15126;SDS011;7664;52.008;4.748;2023-06-19T05:45:09;6.75;;;4.15;;
15126;SDS011;7664;52.008;4.748;2023-06-19T05:47:38;6.32;;;4.15;;
15126;SDS011;7664;52.008;4.748;2023-06-19T05:50:09;6.47;;;4.20;;
15126;SDS011;7664;52.008;4.748;2023-06-19T05:52:38;9.65;;;5.95;;
15126;SDS011;7664;52.008;4.748;2023-06-19T05:55:09;8.80;;;4.85;;
15126;SDS011;7664;52.008;4.748;2023-06-19T05:57:38;9.32;;;6.47;;
15126;SDS011;7664;52.008;4.748;2023-06-19T06:00:09;6.68;;;5.47;;
15126;SDS011;7664;52.008;4.748;2023-06-19T06:02:40;8.20;;;5.68;;
15126;SDS011;7664;52.008;4.748;2023-06-19T06:05:09;8.48;;;5.60;;
15126;SDS011;7664;52.008;4.748;2023-06-19T06:07:37;9.05;;;5.65;;
15126;SDS011;7664;52.008;4.748;2023-06-19T06:10:07;11.50;;;5.78;;
15126;SDS011;7664;52.008;4.748;2023-06-19T06:12:35;6.60;;;4.95;;
15126;SDS011;7664;52.008;4.748;2023-06-19T06:15:04;8.57;;;5.88;;
15126;SDS011;7664;52.008;4.748;2023-06-19T06:17:34;11.40;;;6.90;;
15126;SDS011;7664;52.008;4.748;2023-06-19T06:20:03;9.45;;;6.22;;
15126;SDS011;7664;52.008;4.748;2023-06-19T06:22:35;11.57;;;6.50;;
15126;SDS011;7664;52.008;4.748;2023-06-19T06:25:03;8.07;;;6.13;;
15126;SDS011;7664;52.008;4.748;2023-06-19T06:27:32;8.45;;;5.60;;
15126;SDS011;7664;52.008;4.748;2023-06-19T06:30:00;10.25;;;7.05;;
15126;SDS011;7664;52.008;4.748;2023-06-19T06:32:29;9.38;;;5.65;;
15126;SDS011;7664;52.008;4.748;2023-06-19T06:34:59;9.68;;;7.05;;
15126;SDS011;7664;52.008;4.748;2023-06-19T06:37:27;10.40;;;6.80;;
15126;SDS011;7664;52.008;4.748;2023-06-19T06:39:56;9.60;;;6.03;;
15126;SDS011;7664;52.008;4.748;2023-06-19T06:42:25;10.15;;;6.70;;
15126;SDS011;7664;52.008;4.748;2023-06-19T06:44:53;9.77;;;6.72;;
15126;SDS011;7664;52.008;4.748;2023-06-19T06:47:22;8.82;;;6.10;;
15126;SDS011;7664;52.008;4.748;2023-06-19T06:49:50;8.73;;;6.05;;
15126;SDS011;7664;52.008;4.748;2023-06-19T06:52:20;7.20;;;5.85;;
15126;SDS011;7664;52.008;4.748;2023-06-19T06:54:49;9.05;;;6.03;;
15126;SDS011;7664;52.008;4.748;2023-06-19T06:57:17;7.20;;;5.30;;
15126;SDS011;7664;52.008;4.748;2023-06-19T06:59:46;11.27;;;6.10;;
15126;SDS011;7664;52.008;4.748;2023-06-19T07:02:14;9.30;;;6.47;;
15126;SDS011;7664;52.008;4.748;2023-06-19T07:04:43;11.43;;;5.75;;
15126;SDS011;7664;52.008;4.748;2023-06-19T07:07:12;8.80;;;5.72;;
15126;SDS011;7664;52.008;4.748;2023-06-19T07:09:41;7.70;;;5.55;;
15126;SDS011;7664;52.008;4.748;2023-06-19T07:12:10;7.53;;;5.75;;
15126;SDS011;7664;52.008;4.748;2023-06-19T07:14:38;9.07;;;6.20;;
15126;SDS011;7664;52.008;4.748;2023-06-19T07:17:06;9.32;;;5.82;;
15126;SDS011;7664;52.008;4.748;2023-06-19T07:19:35;8.40;;;6.38;;
15126;SDS011;7664;52.008;4.748;2023-06-19T07:22:03;11.07;;;6.15;;
15126;SDS011;7664;52.008;4.748;2023-06-19T07:24:32;7.75;;;5.55;;
15126;SDS011;7664;52.008;4.748;2023-06-19T07:27:01;8.63;;;5.60;;
15126;SDS011;7664;52.008;4.748;2023-06-19T07:29:30;10.60;;;6.90;;
15126;SDS011;7664;52.008;4.748;2023-06-19T07:31:58;11.80;;;7.18;;
15126;SDS011;7664;52.008;4.748;2023-06-19T07:34:30;10.98;;;8.52;;
15126;SDS011;7664;52.008;4.748;2023-06-19T07:36:58;11.65;;;8.82;;
15126;SDS011;7664;52.008;4.748;2023-06-19T07:39:26;14.75;;;9.10;;
15126;SDS011;7664;52.008;4.748;2023-06-19T07:41:55;11.27;;;7.80;;
15126;SDS011;7664;52.008;4.748;2023-06-19T07:44:25;12.45;;;8.32;;
15126;SDS011;7664;52.008;4.748;2023-06-19T07:46:53;12.20;;;8.02;;
15126;SDS011;7664;52.008;4.748;2023-06-19T07:49:22;10.77;;;7.88;;
15126;SDS011;7664;52.008;4.748;2023-06-19T07:51:50;13.15;;;8.90;;
15126;SDS011;7664;52.008;4.748;2023-06-19T07:54:19;15.95;;;9.13;;
15126;SDS011;7664;52.008;4.748;2023-06-19T07:56:47;14.00;;;9.48;;
15126;SDS011;7664;52.008;4.748;2023-06-19T07:59:15;18.15;;;10.15;;
15126;SDS011;7664;52.008;4.748;2023-06-19T08:01:45;13.27;;;8.82;;
15126;SDS011;7664;52.008;4.748;2023-06-19T08:04:14;14.38;;;10.02;;
15126;SDS011;7664;52.008;4.748;2023-06-19T08:06:42;13.02;;;8.73;;
15126;SDS011;7664;52.008;4.748;2023-06-19T08:09:10;13.80;;;9.82;;
15126;SDS011;7664;52.008;4.748;2023-06-19T08:11:40;12.18;;;8.93;;
15126;SDS011;7664;52.008;4.748;2023-06-19T08:14:08;18.33;;;9.73;;
15126;SDS011;7664;52.008;4.748;2023-06-19T08:16:36;11.13;;;7.95;;
15126;SDS011;7664;52.008;4.748;2023-06-19T08:19:06;11.82;;;8.02;;
15126;SDS011;7664;52.008;4.748;2023-06-19T08:21:34;13.13;;;8.48;;
15126;SDS011;7664;52.008;4.748;2023-06-19T08:24:03;10.63;;;8.73;;
15126;SDS011;7664;52.008;4.748;2023-06-19T08:26:31;13.43;;;9.20;;
15126;SDS011;7664;52.008;4.748;2023-06-19T08:29:00;14.35;;;9.55;;
15126;SDS011;7664;52.008;4.748;2023-06-19T08:31:28;10.43;;;8.02;;
15126;SDS011;7664;52.008;4.748;2023-06-19T08:33:57;12.32;;;8.75;;
15126;SDS011;7664;52.008;4.748;2023-06-19T08:36:28;11.45;;;8.07;;
15126;SDS011;7664;52.008;4.748;2023-06-19T08:38:56;12.07;;;8.60;;
15126;SDS011;7664;52.008;4.748;2023-06-19T08:41:25;11.80;;;7.32;;
15126;SDS011;7664;52.008;4.748;2023-06-19T08:43:53;12.73;;;8.63;;
15126;SDS011;7664;52.008;4.748;2023-06-19T08:46:22;13.20;;;8.30;;
15126;SDS011;7664;52.008;4.748;2023-06-19T08:48:51;11.40;;;7.95;;
15126;SDS011;7664;52.008;4.748;2023-06-19T08:51:19;13.30;;;8.10;;
15126;SDS011;7664;52.008;4.748;2023-06-19T08:53:49;12.00;;;8.70;;
15126;SDS011;7664;52.008;4.748;2023-06-19T08:56:18;11.82;;;9.00;;
15126;SDS011;7664;52.008;4.748;2023-06-19T08:58:46;14.80;;;9.43;;
15126;SDS011;7664;52.008;4.748;2023-06-19T09:01:16;12.02;;;9.73;;
15126;SDS011;7664;52.008;4.748;2023-06-19T09:03:44;12.48;;;8.23;;
15126;SDS011;7664;52.008;4.748;2023-06-19T09:06:14;15.55;;;9.68;;
15126;SDS011;7664;52.008;4.748;2023-06-19T09:08:43;12.88;;;8.45;;
15126;SDS011;7664;52.008;4.748;2023-06-19T09:11:13;12.25;;;9.57;;
15126;SDS011;7664;52.008;4.748;2023-06-19T09:13:55;12.15;;;8.70;;
15126;SDS011;7664;52.008;4.748;2023-06-19T09:16:24;10.48;;;8.43;;
15126;SDS011;7664;52.008;4.748;2023-06-19T09:18:54;11.70;;;8.75;;
15126;SDS011;7664;52.008;4.748;2023-06-19T09:21:22;14.68;;;8.48;;
15126;SDS011;7664;52.008;4.748;2023-06-19T09:23:51;13.32;;;9.18;;
15126;SDS011;7664;52.008;4.748;2023-06-19T09:26:29;12.38;;;9.27;;
15126;SDS011;7664;52.008;4.748;2023-06-19T09:28:58;14.45;;;9.70;;
15126;SDS011;7664;52.008;4.748;2023-06-19T09:31:41;11.70;;;8.18;;
15126;SDS011;7664;52.008;4.748;2023-06-19T09:34:09;13.10;;;9.45;;
15126;SDS011;7664;52.008;4.748;2023-06-19T09:36:38;11.73;;;8.75;;
15126;SDS011;7664;52.008;4.748;2023-06-19T09:39:07;13.57;;;9.45;;
15126;SDS011;7664;52.008;4.748;2023-06-19T09:41:38;12.02;;;9.02;;
15126;SDS011;7664;52.008;4.748;2023-06-19T09:44:08;11.35;;;8.95;;
15126;SDS011;7664;52.008;4.748;2023-06-19T09:46:38;15.77;;;10.27;;
15126;SDS011;7664;52.008;4.748;2023-06-19T09:49:09;15.48;;;9.32;;
15126;SDS011;7664;52.008;4.748;2023-06-19T09:51:40;15.63;;;9.95;;
15126;SDS011;7664;52.008;4.748;2023-06-19T09:54:09;11.20;;;8.93;;
15126;SDS011;7664;52.008;4.748;2023-06-19T09:56:39;15.20;;;9.63;;
15126;SDS011;7664;52.008;4.748;2023-06-19T09:59:08;16.90;;;10.25;;
15126;SDS011;7664;52.008;4.748;2023-06-19T10:01:37;14.27;;;10.38;;
15126;SDS011;7664;52.008;4.748;2023-06-19T10:04:06;14.18;;;9.75;;
15126;SDS011;7664;52.008;4.748;2023-06-19T10:06:42;11.50;;;8.95;;
15126;SDS011;7664;52.008;4.748;2023-06-19T10:09:11;12.90;;;9.98;;
15126;SDS011;7664;52.008;4.748;2023-06-19T10:11:47;12.43;;;8.73;;
15126;SDS011;7664;52.008;4.748;2023-06-19T10:14:18;11.93;;;8.32;;
15126;SDS011;7664;52.008;4.748;2023-06-19T10:16:46;9.68;;;7.88;;
15126;SDS011;7664;52.008;4.748;2023-06-19T10:19:15;10.73;;;8.23;;
15126;SDS011;7664;52.008;4.748;2023-06-19T10:21:44;10.85;;;7.85;;
15126;SDS011;7664;52.008;4.748;2023-06-19T10:24:14;8.88;;;7.70;;
15126;SDS011;7664;52.008;4.748;2023-06-19T10:26:56;14.20;;;8.07;;
15126;SDS011;7664;52.008;4.748;2023-06-19T10:29:25;10.23;;;8.40;;
15126;SDS011;7664;52.008;4.748;2023-06-19T10:31:55;10.93;;;7.53;;
15126;SDS011;7664;52.008;4.748;2023-06-19T10:34:32;9.45;;;6.88;;
15126;SDS011;7664;52.008;4.748;2023-06-19T10:37:01;8.27;;;6.57;;
15126;SDS011;7664;52.008;4.748;2023-06-19T10:39:30;8.85;;;7.28;;
15126;SDS011;7664;52.008;4.748;2023-06-19T10:42:00;11.35;;;8.13;;
15126;SDS011;7664;52.008;4.748;2023-06-19T10:44:31;11.13;;;7.90;;
15126;SDS011;7664;52.008;4.748;2023-06-19T10:46:59;10.65;;;7.90;;
15126;SDS011;7664;52.008;4.748;2023-06-19T10:49:27;10.40;;;7.97;;
15126;SDS011;7664;52.008;4.748;2023-06-19T10:51:58;9.82;;;6.85;;
15126;SDS011;7664;52.008;4.748;2023-06-19T10:54:27;9.43;;;7.00;;
15126;SDS011;7664;52.008;4.748;2023-06-19T10:56:57;8.15;;;7.00;;
15126;SDS011;7664;52.008;4.748;2023-06-19T10:59:30;8.40;;;6.82;;
15126;SDS011;7664;52.008;4.748;2023-06-19T11:02:01;9.02;;;7.03;;
15126;SDS011;7664;52.008;4.748;2023-06-19T11:04:32;9.50;;;6.60;;
15126;SDS011;7664;52.008;4.748;2023-06-19T11:07:05;15.23;;;6.75;;
15126;SDS011;7664;52.008;4.748;2023-06-19T11:09:34;10.10;;;6.25;;
15126;SDS011;7664;52.008;4.748;2023-06-19T11:12:03;7.50;;;5.30;;
15126;SDS011;7664;52.008;4.748;2023-06-19T11:14:35;7.63;;;5.90;;
15126;SDS011;7664;52.008;4.748;2023-06-19T11:17:06;8.85;;;6.47;;
15126;SDS011;7664;52.008;4.748;2023-06-19T11:19:34;7.40;;;5.57;;
15126;SDS011;7664;52.008;4.748;2023-06-19T11:22:04;8.93;;;6.25;;
15126;SDS011;7664;52.008;4.748;2023-06-19T11:24:34;8.27;;;6.82;;
15126;SDS011;7664;52.008;4.748;2023-06-19T11:27:03;9.88;;;7.05;;
15126;SDS011;7664;52.008;4.748;2023-06-19T11:29:31;10.45;;;7.25;;
15126;SDS011;7664;52.008;4.748;2023-06-19T11:32:08;9.25;;;7.10;;
15126;SDS011;7664;52.008;4.748;2023-06-19T11:34:39;9.27;;;7.72;;
15126;SDS011;7664;52.008;4.748;2023-06-19T11:37:14;10.18;;;7.72;;
15126;SDS011;7664;52.008;4.748;2023-06-19T11:39:44;8.82;;;6.40;;
15126;SDS011;7664;52.008;4.748;2023-06-19T11:42:13;8.93;;;6.95;;
15126;SDS011;7664;52.008;4.748;2023-06-19T11:44:53;10.15;;;7.25;;
15126;SDS011;7664;52.008;4.748;2023-06-19T11:47:23;8.75;;;6.78;;
15126;SDS011;7664;52.008;4.748;2023-06-19T11:49:54;9.88;;;6.50;;
15126;SDS011;7664;52.008;4.748;2023-06-19T11:52:23;8.65;;;6.10;;
15126;SDS011;7664;52.008;4.748;2023-06-19T11:54:51;9.80;;;6.07;;
15126;SDS011;7664;52.008;4.748;2023-06-19T11:57:19;14.18;;;6.50;;
15126;SDS011;7664;52.008;4.748;2023-06-19T11:59:48;8.63;;;5.93;;
15126;SDS011;7664;52.008;4.748;2023-06-19T12:02:16;6.07;;;5.47;;
15126;SDS011;7664;52.008;4.748;2023-06-19T12:04:46;9.20;;;5.53;;
15126;SDS011;7664;52.008;4.748;2023-06-19T12:07:15;6.35;;;5.32;;
15126;SDS011;7664;52.008;4.748;2023-06-19T12:09:43;6.82;;;5.80;;
15126;SDS011;7664;52.008;4.748;2023-06-19T12:12:12;8.32;;;6.63;;
15126;SDS011;7664;52.008;4.748;2023-06-19T12:14:40;11.23;;;6.85;;
15126;SDS011;7664;52.008;4.748;2023-06-19T12:17:09;7.68;;;6.20;;
15126;SDS011;7664;52.008;4.748;2023-06-19T12:19:38;8.35;;;6.57;;
15126;SDS011;7664;52.008;4.748;2023-06-19T12:22:08;7.95;;;6.45;;
15126;SDS011;7664;52.008;4.748;2023-06-19T12:24:36;6.93;;;6.10;;
15126;SDS011;7664;52.008;4.748;2023-06-19T12:27:05;8.55;;;7.03;;
15126;SDS011;7664;52.008;4.748;2023-06-19T12:29:33;8.07;;;7.22;;
15126;SDS011;7664;52.008;4.748;2023-06-19T12:32:02;9.88;;;6.95;;
15126;SDS011;7664;52.008;4.748;2023-06-19T12:34:30;7.88;;;6.10;;
15126;SDS011;7664;52.008;4.748;2023-06-19T12:36:59;7.85;;;6.13;;
15126;SDS011;7664;52.008;4.748;2023-06-19T12:39:28;8.45;;;5.55;;
15126;SDS011;7664;52.008;4.748;2023-06-19T12:41:57;7.78;;;5.47;;
15126;SDS011;7664;52.008;4.748;2023-06-19T12:44:26;7.28;;;5.60;;
15126;SDS011;7664;52.008;4.748;2023-06-19T12:46:55;6.88;;;5.30;;
15126;SDS011;7664;52.008;4.748;2023-06-19T12:49:25;6.47;;;5.00;;
15126;SDS011;7664;52.008;4.748;2023-06-19T12:51:53;6.40;;;4.43;;
15126;SDS011;7664;52.008;4.748;2023-06-19T12:54:22;6.82;;;4.63;;
15126;SDS011;7664;52.008;4.748;2023-06-19T12:56:52;5.68;;;5.03;;
15126;SDS011;7664;52.008;4.748;2023-06-19T12:59:20;5.90;;;4.40;;
15126;SDS011;7664;52.008;4.748;2023-06-19T13:01:48;5.78;;;4.68;;
15126;SDS011;7664;52.008;4.748;2023-06-19T13:04:17;7.75;;;5.40;;
15126;SDS011;7664;52.008;4.748;2023-06-19T13:06:45;7.50;;;4.75;;
15126;SDS011;7664;52.008;4.748;2023-06-19T13:09:14;4.90;;;4.07;;
15126;SDS011;7664;52.008;4.748;2023-06-19T13:11:43;5.63;;;4.18;;
15126;SDS011;7664;52.008;4.748;2023-06-19T13:14:12;6.65;;;4.15;;
15126;SDS011;7664;52.008;4.748;2023-06-19T13:16:40;6.13;;;4.90;;
15126;SDS011;7664;52.008;4.748;2023-06-19T13:19:13;5.60;;;4.82;;
15126;SDS011;7664;52.008;4.748;2023-06-19T13:21:42;6.10;;;4.20;;
15126;SDS011;7664;52.008;4.748;2023-06-19T13:24:10;8.43;;;5.30;;
15126;SDS011;7664;52.008;4.748;2023-06-19T13:26:39;7.70;;;4.75;;
15126;SDS011;7664;52.008;4.748;2023-06-19T13:29:07;5.88;;;5.15;;
15126;SDS011;7664;52.008;4.748;2023-06-19T13:31:37;5.80;;;4.53;;
15126;SDS011;7664;52.008;4.748;2023-06-19T13:34:06;6.70;;;4.70;;
15126;SDS011;7664;52.008;4.748;2023-06-19T13:36:34;6.72;;;5.00;;
15126;SDS011;7664;52.008;4.748;2023-06-19T13:39:03;9.05;;;4.60;;
15126;SDS011;7664;52.008;4.748;2023-06-19T13:41:31;7.75;;;4.95;;
15126;SDS011;7664;52.008;4.748;2023-06-19T13:44:00;7.55;;;4.45;;
15126;SDS011;7664;52.008;4.748;2023-06-19T13:46:29;10.50;;;4.82;;
15126;SDS011;7664;52.008;4.748;2023-06-19T13:49:00;5.43;;;4.40;;
15126;SDS011;7664;52.008;4.748;2023-06-19T13:51:28;8.57;;;4.05;;
15126;SDS011;7664;52.008;4.748;2023-06-19T13:53:56;7.15;;;4.20;;
15126;SDS011;7664;52.008;4.748;2023-06-19T13:56:25;6.82;;;4.40;;
15126;SDS011;7664;52.008;4.748;2023-06-19T13:58:53;6.30;;;4.60;;
15126;SDS011;7664;52.008;4.748;2023-06-19T14:01:22;6.82;;;4.43;;
15126;SDS011;7664;52.008;4.748;2023-06-19T14:03:52;8.13;;;4.88;;
15126;SDS011;7664;52.008;4.748;2023-06-19T14:06:21;7.35;;;4.85;;
15126;SDS011;7664;52.008;4.748;2023-06-19T14:08:49;5.78;;;4.50;;
15126;SDS011;7664;52.008;4.748;2023-06-19T14:11:18;5.25;;;4.30;;
15126;SDS011;7664;52.008;4.748;2023-06-19T14:13:47;5.50;;;3.97;;
15126;SDS011;7664;52.008;4.748;2023-06-19T14:16:16;6.50;;;4.25;;
15126;SDS011;7664;52.008;4.748;2023-06-19T14:18:44;6.28;;;3.80;;
15126;SDS011;7664;52.008;4.748;2023-06-19T14:21:12;6.97;;;4.32;;
15126;SDS011;7664;52.008;4.748;2023-06-19T14:23:42;4.50;;;3.60;;
15126;SDS011;7664;52.008;4.748;2023-06-19T14:26:10;6.65;;;4.15;;
15126;SDS011;7664;52.008;4.748;2023-06-19T14:28:39;5.47;;;4.10;;
15126;SDS011;7664;52.008;4.748;2023-06-19T14:31:07;4.47;;;3.38;;
15126;SDS011;7664;52.008;4.748;2023-06-19T14:33:36;6.40;;;4.25;;
15126;SDS011;7664;52.008;4.748;2023-06-19T14:36:04;4.95;;;3.95;;
15126;SDS011;7664;52.008;4.748;2023-06-19T14:38:33;5.10;;;3.92;;
15126;SDS011;7664;52.008;4.748;2023-06-19T14:41:02;5.95;;;4.40;;
15126;SDS011;7664;52.008;4.748;2023-06-19T14:43:31;6.95;;;4.55;;
15126;SDS011;7664;52.008;4.748;2023-06-19T14:46:01;8.35;;;4.47;;
15126;SDS011;7664;52.008;4.748;2023-06-19T14:48:30;8.40;;;4.90;;
15126;SDS011;7664;52.008;4.748;2023-06-19T14:51:00;6.70;;;3.95;;
15126;SDS011;7664;52.008;4.748;2023-06-19T14:53:30;4.95;;;3.63;;
15126;SDS011;7664;52.008;4.748;2023-06-19T14:55:59;9.20;;;4.13;;
15126;SDS011;7664;52.008;4.748;2023-06-19T14:58:28;5.95;;;3.83;;
15126;SDS011;7664;52.008;4.748;2023-06-19T15:00:57;9.25;;;4.35;;
15126;SDS011;7664;52.008;4.748;2023-06-19T15:03:27;9.07;;;4.13;;
15126;SDS011;7664;52.008;4.748;2023-06-19T15:05:56;11.27;;;4.38;;
15126;SDS011;7664;52.008;4.748;2023-06-19T15:08:25;5.28;;;3.92;;
15126;SDS011;7664;52.008;4.748;2023-06-19T15:10:53;5.63;;;3.80;;